Time;durP1;ratioP1;P1;durP2;ratioP2;P2;SDS_P1;SDS_P2;PMS_P1;PMS_P2;Temp;Humidity;BMP_temperature;BMP_pressure;BME280_temperature;BME280_humidity;BME280_pressure;Samples;Min_cycle;Max_cycle;Signal;HPM_P1;HPM_P2
2022/03/10 00:00:44;;;;;;;;;40.25;34.00;;;;;;;;5068867;28;51107;-59
2022/03/10 00:03:09;;;;;;;;;39.00;34.75;;;;;;;;5071936;28;50897;-59
2022/03/10 00:05:34;;;;;;;;;38.00;34.00;;;;;;;;5071695;28;52215;-59
2022/03/10 00:08:00;;;;;;;;;32.00;29.50;;;;;;;;5072078;28;50985;-60
2022/03/10 00:10:25;;;;;;;;;35.25;34.00;;;;;;;;5061607;27;50897;-59
2022/03/10 00:12:51;;;;;;;;;40.25;34.25;;;;;;;;5098158;27;50988;-59
2022/03/10 00:15:18;;;;;;;;;39.50;36.75;;;;;;;;5071802;28;52004;-60
2022/03/10 00:17:43;;;;;;;;;40.50;35.75;;;;;;;;5069343;28;50938;-59
2022/03/10 00:20:09;;;;;;;;;39.50;34.00;;;;;;;;5071619;28;51089;-59
2022/03/10 00:22:47;;;;;;;;;42.25;36.25;;;;;;;;5071659;28;51041;-60
2022/03/10 00:25:13;;;;;;;;;40.50;37.00;;;;;;;;5071533;28;52389;-60
2022/03/10 00:27:39;;;;;;;;;46.25;37.50;;;;;;;;5069151;27;51364;-60
2022/03/10 00:30:05;;;;;;;;;35.25;33.25;;;;;;;;5070267;28;50997;-59
2022/03/10 00:32:30;;;;;;;;;39.00;36.75;;;;;;;;5071708;28;51053;-59
2022/03/10 00:34:56;;;;;;;;;38.00;34.25;;;;;;;;5071643;27;51044;-59
2022/03/10 00:37:21;;;;;;;;;41.00;36.00;;;;;;;;5074855;28;50970;-60
2022/03/10 00:39:46;;;;;;;;;36.75;34.00;;;;;;;;5074673;28;50887;-60
2022/03/10 00:42:11;;;;;;;;;34.50;32.50;;;;;;;;5075717;27;51225;-60
2022/03/10 00:44:37;;;;;;;;;38.25;34.75;;;;;;;;5075171;27;51841;-60
2022/03/10 00:47:02;;;;;;;;;43.00;37.25;;;;;;;;5075709;28;50919;-61
2022/03/10 00:49:27;;;;;;;;;37.75;35.00;;;;;;;;5076168;28;51238;-60
2022/03/10 00:51:52;;;;;;;;;43.75;37.50;;;;;;;;5074508;28;51031;-60
2022/03/10 00:54:18;;;;;;;;;38.00;34.50;;;;;;;;5074944;28;51139;-60
2022/03/10 00:56:43;;;;;;;;;36.75;33.75;;;;;;;;5062966;27;51106;-60
2022/03/10 00:59:08;;;;;;;;;39.75;33.75;;;;;;;;5072821;27;51118;-60
2022/03/10 01:01:33;;;;;;;;;42.25;37.75;;;;;;;;5074356;28;51341;-60
2022/03/10 01:03:58;;;;;;;;;36.25;33.75;;;;;;;;5074465;28;51983;-60
2022/03/10 01:06:24;;;;;;;;;37.00;33.25;;;;;;;;5075484;28;51068;-60
2022/03/10 01:08:49;;;;;;;;;33.75;32.00;;;;;;;;5075108;28;51187;-60
2022/03/10 01:11:15;;;;;;;;;37.50;32.75;;;;;;;;5075551;27;51229;-60
2022/03/10 01:13:40;;;;;;;;;35.50;32.50;;;;;;;;5073881;28;52186;-60
2022/03/10 01:16:06;;;;;;;;;32.50;31.50;;;;;;;;5084409;27;50956;-61
2022/03/10 01:18:31;;;;;;;;;42.50;36.50;;;;;;;;5073271;27;51177;-60
2022/03/10 01:20:56;;;;;;;;;39.25;35.00;;;;;;;;5079348;27;51038;-61
2022/03/10 01:23:21;;;;;;;;;36.00;34.50;;;;;;;;5072904;27;51177;-60
2022/03/10 01:25:46;;;;;;;;;33.75;32.75;;;;;;;;5085828;27;50986;-60
2022/03/10 01:28:12;;;;;;;;;31.50;29.25;;;;;;;;5074988;28;51035;-59
2022/03/10 01:30:37;;;;;;;;;42.75;36.50;;;;;;;;5073908;28;51420;-59
2022/03/10 01:33:02;;;;;;;;;33.00;30.75;;;;;;;;5072823;27;52125;-59
2022/03/10 01:35:27;;;;;;;;;35.50;28.50;;;;;;;;5074389;28;51026;-59
2022/03/10 01:37:53;;;;;;;;;36.25;34.50;;;;;;;;5073520;28;51266;-60
2022/03/10 01:40:18;;;;;;;;;29.25;29.25;;;;;;;;5074700;28;51089;-61
2022/03/10 01:42:44;;;;;;;;;34.50;32.25;;;;;;;;5073009;28;51145;-59
2022/03/10 01:45:10;;;;;;;;;41.25;34.75;;;;;;;;5074541;28;51003;-59
2022/03/10 01:47:35;;;;;;;;;35.25;31.00;;;;;;;;5068746;28;51401;-59
2022/03/10 01:50:01;;;;;;;;;34.50;31.75;;;;;;;;5071823;27;51110;-59
2022/03/10 01:52:26;;;;;;;;;36.50;34.50;;;;;;;;5074029;28;52415;-58
2022/03/10 01:54:52;;;;;;;;;35.25;33.75;;;;;;;;5073813;28;51138;-59
2022/03/10 01:57:17;;;;;;;;;42.75;35.00;;;;;;;;5072747;28;51095;-59
2022/03/10 01:59:42;;;;;;;;;39.00;33.00;;;;;;;;5074368;28;50907;-59
2022/03/10 02:02:09;;;;;;;;;37.50;33.00;;;;;;;;5073696;28;52301;-61
2022/03/10 02:04:34;;;;;;;;;37.25;35.00;;;;;;;;5071263;27;51186;-61
2022/03/10 02:07:05;;;;;;;;;38.00;34.75;;;;;;;;5074176;28;51076;-60
2022/03/10 02:12:14;;;;;;;;;36.75;34.25;;;;;;;;5071064;27;51044;-58
2022/03/10 02:17:24;;;;;;;;;34.75;34.00;;;;;;;;5075921;28;51194;-60
2022/03/10 02:19:51;;;;;;;;;34.75;33.00;;;;;;;;5074484;27;51279;-60
2022/03/10 02:22:16;;;;;;;;;42.75;35.50;;;;;;;;5074280;28;51874;-60
2022/03/10 02:24:42;;;;;;;;;40.50;36.75;;;;;;;;5072473;27;51035;-60
2022/03/10 02:27:19;;;;;;;;;37.25;34.50;;;;;;;;5074260;27;50930;-60
2022/03/10 02:29:46;;;;;;;;;35.00;32.75;;;;;;;;5072978;27;51258;-60
2022/03/10 02:32:11;;;;;;;;;38.25;35.75;;;;;;;;5072310;28;54071;-60
2022/03/10 02:34:37;;;;;;;;;36.25;35.00;;;;;;;;5072315;27;51123;-60
2022/03/10 02:37:02;;;;;;;;;38.75;35.50;;;;;;;;5074021;28;50990;-59
2022/03/10 02:39:28;;;;;;;;;37.00;32.75;;;;;;;;5072866;28;52884;-59
2022/03/10 02:41:53;;;;;;;;;35.50;34.75;;;;;;;;5073660;28;51068;-59
2022/03/10 02:44:18;;;;;;;;;31.50;30.00;;;;;;;;5072075;27;51163;-59
2022/03/10 02:46:43;;;;;;;;;38.75;35.25;;;;;;;;5072536;28;50869;-59
2022/03/10 02:49:08;;;;;;;;;29.75;27.75;;;;;;;;5072232;27;51308;-59
2022/03/10 02:51:34;;;;;;;;;33.75;27.75;;;;;;;;5073418;28;52021;-59
2022/03/10 02:53:59;;;;;;;;;40.75;35.50;;;;;;;;5067693;27;51092;-60
2022/03/10 02:56:24;;;;;;;;;39.50;33.75;;;;;;;;5073123;27;51096;-60
2022/03/10 02:58:49;;;;;;;;;36.50;35.00;;;;;;;;5070217;27;51353;-60
2022/03/10 03:01:15;;;;;;;;;29.50;28.50;;;;;;;;5072053;28;53253;-59
2022/03/10 03:03:40;;;;;;;;;34.00;32.25;;;;;;;;5070278;27;50970;-60
2022/03/10 03:06:05;;;;;;;;;35.50;30.25;;;;;;;;5069503;28;50852;-59
2022/03/10 03:08:30;;;;;;;;;31.25;29.50;;;;;;;;5072365;27;50819;-60
2022/03/10 03:10:55;;;;;;;;;36.25;33.00;;;;;;;;5072367;28;52034;-59
2022/03/10 03:13:21;;;;;;;;;33.00;31.25;;;;;;;;5073249;28;51037;-59
2022/03/10 03:15:46;;;;;;;;;43.00;37.50;;;;;;;;5068958;27;51313;-59
2022/03/10 03:18:11;;;;;;;;;32.00;31.00;;;;;;;;5073571;28;50899;-59
2022/03/10 03:20:36;;;;;;;;;36.25;31.50;;;;;;;;5071212;28;51210;-58
2022/03/10 03:23:01;;;;;;;;;37.00;32.75;;;;;;;;5072894;28;50967;-59
2022/03/10 03:25:27;;;;;;;;;36.00;32.25;;;;;;;;5071924;28;50937;-59
2022/03/10 03:27:52;;;;;;;;;41.25;35.25;;;;;;;;5072278;28;50943;-59
2022/03/10 03:30:17;;;;;;;;;32.50;31.50;;;;;;;;5072961;28;52218;-60
2022/03/10 03:32:43;;;;;;;;;31.25;29.00;;;;;;;;5072077;27;50881;-59
2022/03/10 03:35:09;;;;;;;;;33.00;32.75;;;;;;;;5069992;27;51136;-59
2022/03/10 03:37:35;;;;;;;;;29.75;28.50;;;;;;;;5073439;28;50925;-59
2022/03/10 03:40:00;;;;;;;;;38.00;34.75;;;;;;;;5072867;28;52025;-59
2022/03/10 03:42:29;;;;;;;;;33.00;31.75;;;;;;;;5060470;27;51320;-59
2022/03/10 03:44:54;;;;;;;;;33.25;32.25;;;;;;;;5072870;28;51095;-59
2022/03/10 03:47:19;;;;;;;;;32.50;32.00;;;;;;;;5072256;27;51175;-59
2022/03/10 03:49:45;;;;;;;;;39.25;36.00;;;;;;;;5074689;28;51057;-59
2022/03/10 03:52:10;;;;;;;;;32.00;30.00;;;;;;;;5072790;27;51158;-60
2022/03/10 03:54:35;;;;;;;;;36.50;34.50;;;;;;;;5074097;28;51046;-59
2022/03/10 03:57:00;;;;;;;;;34.75;31.25;;;;;;;;5072354;28;50939;-59
2022/03/10 03:59:25;;;;;;;;;37.50;35.00;;;;;;;;5072238;28;52922;-59
2022/03/10 04:01:51;;;;;;;;;37.75;35.25;;;;;;;;5074056;27;50973;-59
2022/03/10 04:04:18;;;;;;;;;31.50;30.50;;;;;;;;5074254;28;51055;-59
2022/03/10 04:06:44;;;;;;;;;35.75;34.50;;;;;;;;5072993;27;51141;-60
2022/03/10 04:09:09;;;;;;;;;36.75;35.00;;;;;;;;5072641;28;52160;-59
2022/03/10 04:11:34;;;;;;;;;40.25;36.25;;;;;;;;5075965;27;51060;-60
2022/03/10 04:13:59;;;;;;;;;35.00;31.50;;;;;;;;5076718;28;50987;-60
2022/03/10 04:16:25;;;;;;;;;33.00;32.00;;;;;;;;5076961;28;51087;-60
2022/03/10 04:18:50;;;;;;;;;31.25;29.25;;;;;;;;5076007;28;51640;-59
2022/03/10 04:21:16;;;;;;;;;39.00;36.00;;;;;;;;5076189;28;51053;-59
2022/03/10 04:23:41;;;;;;;;;40.00;35.00;;;;;;;;5074620;28;51095;-61
2022/03/10 04:26:06;;;;;;;;;42.00;35.75;;;;;;;;5076647;28;51006;-59
2022/03/10 04:28:31;;;;;;;;;42.00;36.50;;;;;;;;5075445;28;53052;-59
2022/03/10 04:30:57;;;;;;;;;32.00;31.00;;;;;;;;5075871;28;51080;-60
2022/03/10 04:33:22;;;;;;;;;41.00;35.75;;;;;;;;5075807;28;50998;-60
2022/03/10 04:35:48;;;;;;;;;39.50;34.75;;;;;;;;5075798;28;51169;-59
2022/03/10 04:38:13;;;;;;;;;30.50;29.50;;;;;;;;5074304;28;51683;-59
2022/03/10 04:40:39;;;;;;;;;33.75;32.25;;;;;;;;5074297;27;50922;-59
2022/03/10 04:43:04;;;;;;;;;39.00;35.75;;;;;;;;5075749;28;50927;-60
2022/03/10 04:45:29;;;;;;;;;37.25;36.00;;;;;;;;5074463;28;50937;-59
2022/03/10 04:47:55;;;;;;;;;35.25;30.75;;;;;;;;5075453;28;51983;-60
2022/03/10 04:50:20;;;;;;;;;31.25;30.50;;;;;;;;5075909;28;50903;-60
2022/03/10 04:52:45;;;;;;;;;34.75;32.50;;;;;;;;5075996;28;51262;-59
2022/03/10 04:55:11;;;;;;;;;36.00;33.50;;;;;;;;5074344;28;51239;-59
2022/03/10 04:57:37;;;;;;;;;33.50;31.25;;;;;;;;5069672;27;52715;-59
2022/03/10 05:00:10;;;;;;;;;39.00;34.00;;;;;;;;5074031;28;51172;-61
2022/03/10 05:02:35;;;;;;;;;32.00;30.25;;;;;;;;5075611;28;51201;-60
2022/03/10 05:05:01;;;;;;;;;34.25;33.75;;;;;;;;5075836;28;50892;-59
2022/03/10 05:07:26;;;;;;;;;38.25;33.75;;;;;;;;5075107;28;51111;-59
2022/03/10 05:09:52;;;;;;;;;39.50;35.50;;;;;;;;5075282;28;51132;-60
2022/03/10 05:12:17;;;;;;;;;34.50;32.50;;;;;;;;5073806;27;51135;-59
2022/03/10 05:14:42;;;;;;;;;40.25;36.75;;;;;;;;5075468;28;51309;-60
2022/03/10 05:17:08;;;;;;;;;35.00;32.75;;;;;;;;5074815;27;52114;-60
2022/03/10 05:19:33;;;;;;;;;44.25;36.25;;;;;;;;5075041;28;50966;-60
2022/03/10 05:21:58;;;;;;;;;41.50;36.50;;;;;;;;5076388;28;50898;-60
2022/03/10 05:24:24;;;;;;;;;33.00;28.75;;;;;;;;5076270;27;51137;-59
2022/03/10 05:26:49;;;;;;;;;38.25;35.50;;;;;;;;5076279;27;52117;-60
2022/03/10 05:29:15;;;;;;;;;31.25;28.75;;;;;;;;5075408;27;51101;-59
2022/03/10 05:31:40;;;;;;;;;36.75;33.25;;;;;;;;5075550;28;51290;-59
2022/03/10 05:34:05;;;;;;;;;33.00;30.50;;;;;;;;5075408;28;51225;-59
2022/03/10 05:36:30;;;;;;;;;38.25;35.25;;;;;;;;5074507;28;51953;-59
2022/03/10 05:38:56;;;;;;;;;40.75;35.75;;;;;;;;5073753;28;51186;-60
2022/03/10 05:41:21;;;;;;;;;40.00;33.25;;;;;;;;5075069;28;51177;-60
2022/03/10 05:43:46;;;;;;;;;38.00;34.25;;;;;;;;5075261;28;51007;-60
2022/03/10 05:46:11;;;;;;;;;36.25;33.50;;;;;;;;5070770;27;51373;-60
2022/03/10 05:48:37;;;;;;;;;30.75;29.00;;;;;;;;5073524;28;51112;-60
2022/03/10 05:51:02;;;;;;;;;32.50;30.25;;;;;;;;5074830;28;51040;-60
2022/03/10 05:53:28;;;;;;;;;38.00;35.75;;;;;;;;5075302;28;51405;-60
2022/03/10 05:55:53;;;;;;;;;36.00;32.75;;;;;;;;5073823;27;51310;-60
2022/03/10 05:58:18;;;;;;;;;35.00;32.00;;;;;;;;5074390;28;51036;-60
2022/03/10 06:00:46;;;;;;;;;34.00;33.00;;;;;;;;5073600;28;51310;-60
2022/03/10 06:03:12;;;;;;;;;29.50;28.50;;;;;;;;5072774;27;51158;-59
2022/03/10 06:05:37;;;;;;;;;38.00;34.00;;;;;;;;5064744;27;51117;-60
2022/03/10 06:08:04;;;;;;;;;40.75;37.00;;;;;;;;5074085;27;51013;-60
2022/03/10 06:10:29;;;;;;;;;37.75;32.25;;;;;;;;5072734;27;51064;-60
2022/03/10 06:12:54;;;;;;;;;35.75;33.25;;;;;;;;5071844;28;51334;-60
2022/03/10 06:15:20;;;;;;;;;35.25;33.75;;;;;;;;5071174;27;51043;-60
2022/03/10 06:17:46;;;;;;;;;40.50;37.00;;;;;;;;5074065;28;51066;-59
2022/03/10 06:20:11;;;;;;;;;38.50;33.25;;;;;;;;5071390;27;51084;-59
2022/03/10 06:22:37;;;;;;;;;37.50;33.50;;;;;;;;5073172;28;51298;-60
2022/03/10 06:25:03;;;;;;;;;24.75;22.75;;;;;;;;5071785;27;51871;-61
2022/03/10 06:27:28;;;;;;;;;44.75;38.75;;;;;;;;5071490;28;51153;-60
2022/03/10 06:29:54;;;;;;;;;33.25;30.50;;;;;;;;5072720;27;50937;-60
2022/03/10 06:32:20;;;;;;;;;35.75;33.25;;;;;;;;5077097;27;51218;-60
2022/03/10 06:34:46;;;;;;;;;35.00;32.50;;;;;;;;5066228;27;52788;-60
2022/03/10 06:37:12;;;;;;;;;41.25;38.00;;;;;;;;5069047;28;51281;-60
2022/03/10 06:39:37;;;;;;;;;37.00;37.00;;;;;;;;5065624;28;51188;-60
2022/03/10 06:42:03;;;;;;;;;38.75;36.50;;;;;;;;5072233;27;51158;-60
2022/03/10 06:44:29;;;;;;;;;39.25;31.75;;;;;;;;5070654;28;53130;-60
2022/03/10 06:46:54;;;;;;;;;34.00;31.50;;;;;;;;5071293;28;51098;-60
2022/03/10 06:49:21;;;;;;;;;33.75;30.50;;;;;;;;5068757;27;51271;-60
2022/03/10 06:51:46;;;;;;;;;42.75;39.00;;;;;;;;5073261;27;51083;-60
2022/03/10 06:54:12;;;;;;;;;33.00;31.75;;;;;;;;5071891;27;51015;-60
2022/03/10 06:56:38;;;;;;;;;38.50;36.25;;;;;;;;5071757;28;51171;-60
2022/03/10 06:59:04;;;;;;;;;38.25;36.00;;;;;;;;5067595;28;51316;-60
2022/03/10 07:01:29;;;;;;;;;33.50;28.75;;;;;;;;5069926;28;51088;-61
2022/03/10 07:03:57;;;;;;;;;41.50;36.75;;;;;;;;5068316;28;51655;-61
2022/03/10 07:06:22;;;;;;;;;39.75;35.50;;;;;;;;5069676;28;51071;-60
2022/03/10 07:08:47;;;;;;;;;39.50;35.00;;;;;;;;5071418;28;50893;-61
2022/03/10 07:11:12;;;;;;;;;44.75;36.25;;;;;;;;5072189;27;50944;-60
2022/03/10 07:13:38;;;;;;;;;37.25;33.75;;;;;;;;5070605;27;51016;-61
2022/03/10 07:16:03;;;;;;;;;40.25;37.00;;;;;;;;5043860;27;54476;-60
2022/03/10 07:18:29;;;;;;;;;34.75;31.00;;;;;;;;5038211;27;51341;-60
2022/03/10 07:20:54;;;;;;;;;34.50;33.75;;;;;;;;5040039;27;52966;-60
2022/03/10 07:23:19;;;;;;;;;36.75;36.00;;;;;;;;5040294;27;51411;-61
2022/03/10 07:25:44;;;;;;;;;38.25;35.00;;;;;;;;5051856;27;51252;-60
2022/03/10 07:28:10;;;;;;;;;33.75;33.50;;;;;;;;5071514;28;51133;-61
2022/03/10 07:30:35;;;;;;;;;31.75;28.00;;;;;;;;5070309;28;50976;-61
2022/03/10 07:33:01;;;;;;;;;34.25;31.50;;;;;;;;5068708;28;52027;-60
2022/03/10 07:35:27;;;;;;;;;35.00;33.75;;;;;;;;5067406;28;51159;-60
2022/03/10 07:37:54;;;;;;;;;40.25;36.25;;;;;;;;5070637;28;51322;-60
2022/03/10 07:40:20;;;;;;;;;38.50;34.25;;;;;;;;5069651;27;51121;-60
2022/03/10 07:42:48;;;;;;;;;41.00;34.25;;;;;;;;5069952;28;52051;-60
2022/03/10 07:45:14;;;;;;;;;32.75;28.50;;;;;;;;5060481;27;51108;-60
2022/03/10 07:47:39;;;;;;;;;34.00;32.25;;;;;;;;5045693;27;53971;-64
2022/03/10 07:50:06;;;;;;;;;37.00;33.00;;;;;;;;5067137;27;51425;-59
2022/03/10 07:52:31;;;;;;;;;37.75;33.25;;;;;;;;5068700;27;53050;-59
2022/03/10 07:54:56;;;;;;;;;42.50;35.50;;;;;;;;5071779;28;51192;-59
2022/03/10 07:57:21;;;;;;;;;40.25;33.50;;;;;;;;5069850;27;51211;-59
2022/03/10 07:59:47;;;;;;;;;96.25;89.50;;;;;;;;5069777;27;51047;-59
2022/03/10 08:02:13;;;;;;;;;37.75;33.75;;;;;;;;5067550;28;52095;-61
2022/03/10 08:04:38;;;;;;;;;42.75;37.00;;;;;;;;5069297;27;51005;-62
2022/03/10 08:07:03;;;;;;;;;44.75;36.25;;;;;;;;5067398;27;50985;-61
2022/03/10 08:09:29;;;;;;;;;35.75;33.00;;;;;;;;5068179;27;51284;-61
2022/03/10 08:11:54;;;;;;;;;32.25;30.50;;;;;;;;5070389;27;51389;-61
2022/03/10 08:14:19;;;;;;;;;33.75;30.25;;;;;;;;5070121;27;51081;-62
2022/03/10 08:16:45;;;;;;;;;38.75;35.00;;;;;;;;5068435;27;52319;-62
2022/03/10 08:19:10;;;;;;;;;33.00;29.75;;;;;;;;5071667;28;51191;-63
2022/03/10 08:21:35;;;;;;;;;35.75;32.75;;;;;;;;5070295;28;52977;-60
2022/03/10 08:24:00;;;;;;;;;34.75;32.25;;;;;;;;5067735;28;51094;-61
2022/03/10 08:26:26;;;;;;;;;34.75;32.00;;;;;;;;5072257;28;50941;-61
2022/03/10 08:28:53;;;;;;;;;31.50;30.00;;;;;;;;5070806;28;51056;-62
2022/03/10 08:31:18;;;;;;;;;30.00;28.50;;;;;;;;5068822;28;51155;-63
2022/03/10 08:33:44;;;;;;;;;31.75;30.25;;;;;;;;5071666;28;51154;-61
2022/03/10 08:36:10;;;;;;;;;32.75;30.50;;;;;;;;5068717;28;51228;-62
2022/03/10 08:38:35;;;;;;;;;32.50;31.00;;;;;;;;5073462;28;51091;-62
2022/03/10 08:41:01;;;;;;;;;36.25;32.00;;;;;;;;5071396;28;51291;-63
2022/03/10 08:43:29;;;;;;;;;34.75;31.50;;;;;;;;5071394;28;51146;-63
2022/03/10 08:45:55;;;;;;;;;31.50;30.00;;;;;;;;5069506;28;50980;-61
2022/03/10 08:48:20;;;;;;;;;35.50;32.75;;;;;;;;5069968;28;51427;-62
2022/03/10 08:50:45;;;;;;;;;29.75;28.00;;;;;;;;5071742;27;50972;-62
2022/03/10 08:53:11;;;;;;;;;40.25;35.25;;;;;;;;5072520;28;50927;-62
2022/03/10 08:55:36;;;;;;;;;32.25;30.50;;;;;;;;5071011;28;51088;-62
2022/03/10 08:58:02;;;;;;;;;30.00;29.50;;;;;;;;5073271;28;51091;-62
2022/03/10 09:00:27;;;;;;;;;32.75;30.50;;;;;;;;5074252;27;51929;-62
2022/03/10 09:02:52;;;;;;;;;31.75;30.25;;;;;;;;5075191;27;50916;-62
2022/03/10 09:05:18;;;;;;;;;30.50;29.50;;;;;;;;5073083;28;50940;-62
2022/03/10 09:07:43;;;;;;;;;30.75;29.75;;;;;;;;5056713;28;51163;-63
2022/03/10 09:10:11;;;;;;;;;28.00;27.25;;;;;;;;5074740;28;51185;-62
2022/03/10 09:12:37;;;;;;;;;31.25;30.00;;;;;;;;5073721;28;51144;-62
2022/03/10 09:15:03;;;;;;;;;33.25;31.00;;;;;;;;5074060;27;51190;-62
2022/03/10 09:17:28;;;;;;;;;19.75;18.25;;;;;;;;5073009;27;51273;-61
2022/03/10 09:19:54;;;;;;;;;30.75;30.00;;;;;;;;5074038;27;52544;-62
2022/03/10 09:22:20;;;;;;;;;30.25;29.25;;;;;;;;5071593;27;50982;-62
2022/03/10 09:24:45;;;;;;;;;29.50;27.75;;;;;;;;5076718;27;51113;-63
2022/03/10 09:27:11;;;;;;;;;28.00;27.25;;;;;;;;5075588;27;51326;-62
2022/03/10 09:29:36;;;;;;;;;27.75;27.25;;;;;;;;5072267;28;52316;-62
2022/03/10 09:32:03;;;;;;;;;27.50;27.25;;;;;;;;5071086;27;51294;-62
2022/03/10 09:34:28;;;;;;;;;27.00;26.50;;;;;;;;5074218;28;51235;-63
2022/03/10 09:36:53;;;;;;;;;27.00;26.00;;;;;;;;5066690;28;52146;-62
2022/03/10 09:39:19;;;;;;;;;27.25;27.00;;;;;;;;5074565;27;50940;-62
2022/03/10 09:41:44;;;;;;;;;29.50;28.75;;;;;;;;5073593;28;51083;-63
2022/03/10 09:44:28;;;;;;;;;26.25;24.50;;;;;;;;5073263;28;50996;-62
2022/03/10 09:46:53;;;;;;;;;27.75;27.50;;;;;;;;5072045;28;50965;-62
2022/03/10 09:49:22;;;;;;;;;28.00;28.00;;;;;;;;5072868;28;51214;-61
2022/03/10 09:51:49;;;;;;;;;29.75;28.00;;;;;;;;5074596;28;50979;-61
2022/03/10 09:54:14;;;;;;;;;25.25;24.50;;;;;;;;5074309;28;51308;-62
2022/03/10 09:56:43;;;;;;;;;19.50;17.75;;;;;;;;5073766;28;52581;-62
2022/03/10 09:59:09;;;;;;;;;26.75;25.75;;;;;;;;5073175;27;51726;-62
2022/03/10 10:01:34;;;;;;;;;21.75;21.50;;;;;;;;5079498;27;51263;-63
2022/03/10 10:03:59;;;;;;;;;26.75;25.00;;;;;;;;5073104;28;51346;-62
2022/03/10 10:06:24;;;;;;;;;27.50;27.00;;;;;;;;5074341;27;51001;-62
2022/03/10 10:08:53;;;;;;;;;31.50;28.25;;;;;;;;5071752;27;51613;-61
2022/03/10 10:11:28;;;;;;;;;30.75;27.50;;;;;;;;5070791;27;50926;-62
2022/03/10 10:13:53;;;;;;;;;25.25;24.75;;;;;;;;5072547;28;51080;-61
2022/03/10 10:16:19;;;;;;;;;27.50;26.50;;;;;;;;5072847;27;51164;-62
2022/03/10 10:18:44;;;;;;;;;26.25;25.00;;;;;;;;5069714;28;51053;-62
2022/03/10 10:21:14;;;;;;;;;23.75;22.75;;;;;;;;5071823;28;51071;-60
2022/03/10 10:23:40;;;;;;;;;27.75;26.75;;;;;;;;5067447;27;51235;-62
2022/03/10 10:26:06;;;;;;;;;28.00;26.25;;;;;;;;5065149;27;52392;-60
2022/03/10 10:28:38;;;;;;;;;25.50;23.75;;;;;;;;5071840;27;51319;-62
2022/03/10 10:31:07;;;;;;;;;27.25;27.00;;;;;;;;5073694;27;51351;-62
2022/03/10 10:33:33;;;;;;;;;24.75;24.25;;;;;;;;5077984;27;51155;-61
2022/03/10 10:36:14;;;;;;;;;29.50;27.50;;;;;;;;5072102;27;51089;-61
2022/03/10 10:38:39;;;;;;;;;24.25;22.25;;;;;;;;5070663;28;51957;-62
2022/03/10 10:41:14;;;;;;;;;23.25;22.50;;;;;;;;5071717;28;51219;-62
2022/03/10 10:43:40;;;;;;;;;24.25;24.00;;;;;;;;5072704;28;51045;-63
2022/03/10 10:46:06;;;;;;;;;27.50;27.00;;;;;;;;5071988;28;51110;-62
2022/03/10 10:48:44;;;;;;;;;23.50;22.75;;;;;;;;5072643;28;51013;-61
2022/03/10 10:51:10;;;;;;;;;20.75;20.25;;;;;;;;5071248;28;51073;-63
2022/03/10 10:53:39;;;;;;;;;26.00;25.50;;;;;;;;5070865;28;51113;-62
2022/03/10 10:56:04;;;;;;;;;22.00;19.75;;;;;;;;5071224;28;52240;-62
2022/03/10 10:58:30;;;;;;;;;22.75;21.25;;;;;;;;5072419;28;51745;-61
2022/03/10 11:00:55;;;;;;;;;18.25;18.25;;;;;;;;5069306;28;51033;-62
2022/03/10 11:03:24;;;;;;;;;17.00;15.67;;;;;;;;5070679;28;51233;-62
2022/03/10 11:05:50;;;;;;;;;24.33;22.00;;;;;;;;5067835;27;51197;-62
2022/03/10 11:08:17;;;;;;;;;20.75;20.25;;;;;;;;5064865;27;52265;-63
2022/03/10 11:10:42;;;;;;;;;19.00;18.00;;;;;;;;5071609;28;51000;-62
2022/03/10 11:13:08;;;;;;;;;19.67;19.67;;;;;;;;5069744;28;51041;-61
2022/03/10 11:15:33;;;;;;;;;26.50;25.25;;;;;;;;5070191;28;51118;-62
2022/03/10 11:18:00;;;;;;;;;18.50;17.50;;;;;;;;5068337;27;52805;-63
2022/03/10 11:20:27;;;;;;;;;19.67;18.00;;;;;;;;5067874;28;51269;-62
2022/03/10 11:23:04;;;;;;;;;19.75;19.75;;;;;;;;5067211;27;51047;-61
2022/03/10 11:25:44;;;;;;;;;18.00;18.00;;;;;;;;5071360;27;51330;-61
2022/03/10 11:28:30;;;;;;;;;16.00;16.00;;;;;;;;5068387;27;51729;-61
2022/03/10 11:30:57;;;;;;;;;18.00;17.00;;;;;;;;5075305;27;51166;-61
2022/03/10 11:33:28;;;;;;;;;16.00;15.00;;;;;;;;5066688;27;51288;-62
2022/03/10 11:35:54;;;;;;;;;19.33;19.33;;;;;;;;5071553;27;51139;-60
2022/03/10 11:38:19;;;;;;;;;16.67;16.67;;;;;;;;5078107;27;51882;-61
2022/03/10 11:40:44;;;;;;;;;18.00;17.00;;;;;;;;5068123;27;51146;-61
2022/03/10 11:43:10;;;;;;;;;17.33;15.67;;;;;;;;5068105;27;51268;-61
2022/03/10 11:45:36;;;;;;;;;21.50;20.00;;;;;;;;5068349;28;51144;-62
2022/03/10 11:48:20;;;;;;;;;19.50;18.50;;;;;;;;5065900;27;53237;-61
2022/03/10 11:50:45;;;;;;;;;19.00;17.00;;;;;;;;5066654;28;51036;-61
2022/03/10 11:53:12;;;;;;;;;17.00;16.33;;;;;;;;5073237;28;51199;-61
2022/03/10 11:55:46;;;;;;;;;18.25;17.50;;;;;;;;5071845;28;51470;-62
2022/03/10 11:58:13;;;;;;;;;20.67;20.00;;;;;;;;5071127;27;51961;-61
2022/03/10 12:00:41;;;;;;;;;15.00;14.00;;;;;;;;5071358;27;50986;-61
2022/03/10 12:03:07;;;;;;;;;14.67;13.67;;;;;;;;5070089;28;51144;-61
2022/03/10 12:05:55;;;;;;;;;17.00;17.00;;;;;;;;5070187;28;51351;-61
2022/03/10 12:08:21;;;;;;;;;17.67;16.67;;;;;;;;5068080;28;53262;-62
2022/03/10 12:10:47;;;;;;;;;12.00;10.67;;;;;;;;5094518;27;51148;-62
2022/03/10 12:13:22;;;;;;;;;15.33;15.00;;;;;;;;5070572;28;51028;-62
2022/03/10 12:15:47;;;;;;;;;15.00;14.00;;;;;;;;5068691;27;51409;-62
2022/03/10 12:18:17;;;;;;;;;17.00;17.00;;;;;;;;5064886;28;51973;-63
2022/03/10 12:20:44;;;;;;;;;13.33;13.00;;;;;;;;5068275;28;51062;-62
2022/03/10 12:23:12;;;;;;;;;13.25;12.50;;;;;;;;5073659;27;51110;-61
2022/03/10 12:25:40;;;;;;;;;14.00;13.33;;;;;;;;5072646;27;51223;-60
2022/03/10 12:28:06;;;;;;;;;13.67;13.00;;;;;;;;5069273;27;52189;-61
2022/03/10 12:30:31;;;;;;;;;12.33;12.33;;;;;;;;5070275;27;51067;-61
2022/03/10 12:32:57;;;;;;;;;18.33;16.33;;;;;;;;5063392;27;51196;-62
2022/03/10 12:35:30;;;;;;;;;15.67;15.33;;;;;;;;5074482;27;51113;-62
2022/03/10 12:37:56;;;;;;;;;13.00;12.00;;;;;;;;5074099;27;52617;-62
2022/03/10 12:40:26;;;;;;;;;14.67;14.00;;;;;;;;5081777;27;50933;-62
2022/03/10 12:42:54;;;;;;;;;16.00;15.33;;;;;;;;5069878;27;51223;-61
2022/03/10 12:45:20;;;;;;;;;12.00;11.00;;;;;;;;5068916;27;51033;-64
2022/03/10 12:47:49;;;;;;;;;14.00;11.67;;;;;;;;5070324;27;51938;-62
2022/03/10 12:50:15;;;;;;;;;14.00;13.00;;;;;;;;5071014;28;50979;-62
2022/03/10 12:52:40;;;;;;;;;12.00;12.00;;;;;;;;5071123;28;50986;-61
2022/03/10 12:55:07;;;;;;;;;12.00;12.00;;;;;;;;5073191;28;51068;-62
2022/03/10 12:57:35;;;;;;;;;12.00;11.33;;;;;;;;5071184;27;54061;-62
2022/03/10 13:00:00;;;;;;;;;11.67;11.67;;;;;;;;5070872;28;50926;-62
2022/03/10 13:02:29;;;;;;;;;13.33;12.33;;;;;;;;5068509;27;51169;-61
2022/03/10 13:05:00;;;;;;;;;12.67;12.33;;;;;;;;5069820;27;51243;-61
2022/03/10 13:07:31;;;;;;;;;11.00;10.00;;;;;;;;5072593;28;52879;-62
2022/03/10 13:09:57;;;;;;;;;17.50;16.50;;;;;;;;5073726;28;51003;-62
2022/03/10 13:12:25;;;;;;;;;14.67;13.00;;;;;;;;5072527;28;51193;-62
2022/03/10 13:14:50;;;;;;;;;13.50;13.50;;;;;;;;5071958;28;51317;-62
2022/03/10 13:17:15;;;;;;;;;13.33;12.00;;;;;;;;5068421;27;53909;-62
2022/03/10 13:19:41;;;;;;;;;13.33;12.33;;;;;;;;5069781;28;51184;-61
2022/03/10 13:22:06;;;;;;;;;8.75;7.75;;;;;;;;5069735;28;51044;-61
2022/03/10 13:24:35;;;;;;;;;13.00;12.75;;;;;;;;5069196;27;51357;-62
2022/03/10 13:27:01;;;;;;;;;12.25;11.75;;;;;;;;5072284;27;52311;-63
2022/03/10 13:29:27;;;;;;;;;15.00;13.33;;;;;;;;5072332;28;51322;-61
2022/03/10 13:31:52;;;;;;;;;16.00;15.50;;;;;;;;5079015;27;50960;-62
2022/03/10 13:34:19;;;;;;;;;16.00;16.00;;;;;;;;5079532;27;51024;-62
2022/03/10 13:36:45;;;;;;;;;16.50;16.50;;;;;;;;5072207;28;52063;-61
2022/03/10 13:39:11;;;;;;;;;17.75;17.50;;;;;;;;5073547;27;50995;-62
2022/03/10 13:41:36;;;;;;;;;16.67;14.00;;;;;;;;5078861;27;51483;-62
2022/03/10 13:44:12;;;;;;;;;10.67;10.67;;;;;;;;5078786;27;51017;-63
2022/03/10 13:46:38;;;;;;;;;13.67;13.00;;;;;;;;5065096;27;52519;-62
2022/03/10 13:49:17;;;;;;;;;11.00;11.00;;;;;;;;5070510;28;51192;-62
2022/03/10 13:51:42;;;;;;;;;15.00;14.25;;;;;;;;5099844;27;51171;-62
2022/03/10 13:54:08;;;;;;;;;13.50;12.50;;;;;;;;5073089;27;51339;-62
2022/03/10 13:56:40;;;;;;;;;27.75;25.00;;;;;;;;5071827;27;51685;-62
2022/03/10 13:59:07;;;;;;;;;12.67;12.00;;;;;;;;5066545;27;51112;-62
2022/03/10 14:01:34;;;;;;;;;13.75;13.50;;;;;;;;5068490;28;51160;-62
2022/03/10 14:04:00;;;;;;;;;15.00;14.33;;;;;;;;5071944;28;51473;-62
2022/03/10 14:06:26;;;;;;;;;10.33;8.67;;;;;;;;5071304;27;52043;-62
2022/03/10 14:08:52;;;;;;;;;11.33;11.00;;;;;;;;5074307;27;51438;-62
2022/03/10 14:11:19;;;;;;;;;12.00;12.00;;;;;;;;5076791;27;51154;-62
2022/03/10 14:13:47;;;;;;;;;13.00;12.33;;;;;;;;5069057;28;51195;-63
2022/03/10 14:16:21;;;;;;;;;14.50;13.75;;;;;;;;5071337;28;52020;-61